Latest Weather Observations for Holsworthy

IDN60901

Issued at 7:31 pm EST Thursday 7 May 2015 (issued every 10 minutes, with the page automatically refreshed every 10 minutes)

About weather observations | Map of Sydney area stations | Latest observations for Sydney area | Other Formats
Station Details ID: 066161 Name: HOLSWORTHY AERODROME AWS Lat: -33.99 Lon: 150.95 Height: 68.16 m
Data from the previous 72 hours. | See also: Recent months at Holsworthy
Date/Time
EST
Tmp

°C
App
Tmp
°C
Dew
Point
°C
Rel
Hum
%
Delta-T

°C
Wind Press
QNH
hPa
Press
MSL
hPa
Rain
since
9 am
mm
Dir
 
Spd
km/h
Gust
km/h
Spd
kts
Gust
kts
07/07:30pm 13.4 9.0 2.6 48 4.8 W 15 24 8 13 1018.6 1018.5 0.0
07/07:00pm 13.5 8.7 2.7 48 4.8 W 17 24 9 13 1018.0 1017.9 0.0
07/06:30pm 13.6 10.0 3.1 49 4.7 W 11 17 6 9 1017.8 1017.7 0.0
07/06:00pm 14.5 9.2 3.0 46 5.2 W 20 32 11 17 1017.3 1017.2 0.0
07/05:43pm 15.1 8.3 3.0 44 5.5 W 28 50 15 27 1017.3 1017.2 0.0
07/05:30pm 14.7 9.6 3.2 46 5.2 W 19 30 10 16 1017.2 1017.1 0.0
07/05:00pm 15.3 9.6 2.8 43 5.6 W 22 35 12 19 1017.0 1016.9 0.0
07/04:34pm 16.2 8.4 1.9 38 6.4 W 32 54 17 29 1016.5 1016.4 0.0
07/04:30pm 16.3 8.9 2.0 38 6.4 W 30 44 16 24 1016.5 1016.4 0.0
07/04:00pm 17.2 11.5 3.1 39 6.5 W 22 41 12 22 1016.5 1016.4 0.0
07/03:30pm 17.6 11.2 3.1 38 6.7 W 26 39 14 21 1016.2 1016.1 0.0
07/03:00pm 18.3 12.4 4.1 39 6.7 WSW 24 39 13 21 1016.0 1015.9 0.0
07/02:30pm 18.7 13.6 4.1 38 6.9 WSW 20 33 11 18 1015.9 1015.8 0.0
07/02:00pm 18.7 13.0 4.8 40 6.7 WSW 24 32 13 17 1015.9 1015.8 0.0
07/01:30pm 18.6 13.8 4.8 40 6.7 WSW 19 28 10 15 1015.8 1015.7 0.0
07/01:00pm 18.8 14.5 5.3 41 6.6 WSW 17 32 9 17 1016.2 1016.1 0.0
07/12:30pm 18.2 13.9 5.1 42 6.3 W 17 33 9 18 1016.4 1016.3 0.0
07/12:00pm 17.5 13.2 5.1 44 6.0 W 17 26 9 14 1016.9 1016.8 0.0
07/11:30am 17.9 13.8 6.1 46 5.8 WNW 17 28 9 15 1017.3 1017.2 0.0
07/11:00am 17.3 14.0 6.5 49 5.3 W 13 22 7 12 1017.8 1017.7 0.0
07/10:30am 16.7 11.6 6.2 50 5.1 WSW 22 32 12 17 1018.0 1017.9 0.0
07/10:00am 16.0 11.0 6.4 53 4.7 W 22 35 12 19 1017.9 1017.8 0.0
07/09:30am 15.5 10.6 6.8 56 4.3 W 22 32 12 17 1018.2 1018.1 0.0
07/09:00am 14.6 9.1 5.9 56 4.2 W 24 37 13 20 1018.0 1017.9 0.0
07/08:30am 12.8 8.1 5.9 63 3.3 W 20 33 11 18 1017.8 1017.7 0.0
07/08:00am 10.1 6.6 5.3 72 2.2 WNW 13 22 7 12 1018.0 1017.9 0.0
07/07:30am 9.2 4.6 5.4 77 1.7 WNW 19 24 10 13 1017.5 1017.4 0.0
07/07:00am 6.8 3.2 4.8 87 0.9 WSW 13 17 7 9 1017.7 1017.6 0.0
07/06:30am 6.4 2.8 4.9 90 0.7 WSW 13 17 7 9 1017.5 1017.4 0.0
07/06:00am 6.4 3.1 4.7 89 0.7 WSW 11 15 6 8 1017.3 1017.2 0.0
07/05:30am 6.3 3.4 4.8 90 0.7 WSW 9 11 5 6 1017.1 1017.0 0.0
07/05:00am 6.5 3.5 4.3 86 0.9 W 9 11 5 6 1017.0 1016.9 0.0
07/04:30am 7.8 4.5 4.7 81 1.4 W 11 13 6 7 1016.9 1016.8 0.0
07/04:00am 8.5 5.0 5.4 81 1.4 SW 13 17 7 9 1016.9 1016.8 0.0
07/03:30am 7.0 4.4 4.3 83 1.2 WSW 7 9 4 5 1016.8 1016.7 0.0
07/03:00am 8.0 5.6 4.2 77 1.7 W 6 9 3 5 1017.1 1017.0 0.0
07/02:30am 8.3 5.6 3.9 74 1.9 W 7 9 4 5 1017.1 1017.0 0.0
07/02:00am 8.9 5.2 4.3 73 2.0 WSW 13 15 7 8 1017.2 1017.1 0.0
07/01:30am 9.4 6.8 4.2 70 2.3 W 7 15 4 8 1017.2 1017.1 0.0
07/01:00am 10.6 8.3 4.7 67 2.7 NW 6 9 3 5 1017.3 1017.2 0.0
07/12:30am 10.9 8.3 4.1 63 3.0 NNE 7 11 4 6 1017.3 1017.2 0.0
07/12:00am 11.4 8.1 4.6 63 3.1 N 11 15 6 8 1017.0 1016.9 0.0
 
Date/Time
EST
Tmp

°C
App
Tmp
°C
Dew
Point
°C
Rel
Hum
%
Delta-T

°C
Wind Press
QNH
hPa
Press
MSL
hPa
Rain
since
9 am
mm
Dir
 
Spd
km/h
Gust
km/h
Spd
kts
Gust
kts
06/11:30pm 11.8 8.5 4.5 61 3.3 N 11 15 6 8 1016.9 1016.8 0.0
06/11:00pm 10.6 7.3 4.7 67 2.7 NW 11 13 6 7 1017.2 1017.1 0.0
06/10:30pm 9.7 8.5 4.5 70 2.3 CALM 0 0 0 0 1017.2 1017.1 0.0
06/10:00pm 11.2 9.5 4.0 61 3.2 W 2 7 1 4 1017.3 1017.2 0.0
06/09:30pm 11.9 9.3 4.2 59 3.5 W 7 17 4 9 1017.3 1017.2 0.0
06/09:00pm 13.0 10.4 4.2 55 4.0 W 7 11 4 6 1017.1 1017.0 0.0
06/08:30pm 13.7 10.4 4.3 53 4.3 W 11 17 6 9 1016.7 1016.6 0.0
06/08:00pm 14.4 9.9 4.4 51 4.6 W 17 26 9 14 1016.1 1016.0 0.0
06/07:30pm 14.4 9.9 4.4 51 4.6 W 17 26 9 14 1015.9 1015.8 0.0
06/07:00pm 14.7 10.3 4.7 51 4.7 W 17 24 9 13 1015.5 1015.4 0.0
06/06:30pm 14.7 11.0 4.7 51 4.7 W 13 20 7 11 1015.3 1015.2 0.0
06/06:00pm 15.1 12.1 4.2 48 5.1 WSW 9 11 5 6 1015.1 1015.0 0.0
06/05:30pm 15.5 11.8 4.5 48 5.2 WSW 13 19 7 10 1014.5 1014.4 0.0
06/05:00pm 16.5 12.0 4.2 44 5.8 WSW 17 24 9 13 1014.0 1014.0 0.0
06/04:30pm 17.7 12.6 3.9 40 6.5 W 20 28 11 15 1013.6 1013.6 0.0
06/04:00pm 18.3 12.8 3.8 38 6.8 WSW 22 33 12 18 1013.3 1013.3 0.0
06/03:30pm 18.7 12.6 2.9 35 7.3 W 24 39 13 21 1013.1 1013.1 0.0
06/03:00pm 19.5 14.5 4.8 38 7.1 W 20 33 11 18 1012.9 1012.9 0.0
06/02:30pm 19.2 12.8 3.4 35 7.4 WSW 26 41 14 22 1012.6 1012.6 0.0
06/02:00pm 19.5 14.0 4.0 36 7.4 W 22 33 12 18 1012.7 1012.7 0.0
06/01:30pm 19.2 14.7 4.2 37 7.2 W 17 26 9 14 1012.7 1012.7 0.0
06/01:00pm 18.9 13.8 4.3 38 7.0 WSW 20 28 11 15 1012.9 1012.9 0.0
06/12:30pm 18.6 13.8 4.8 40 6.7 WSW 19 28 10 15 1013.2 1013.2 0.0
06/12:00pm 17.5 12.0 3.8 40 6.4 W 22 30 12 16 1013.7 1013.7 0.0
06/11:30am 16.9 10.1 2.9 39 6.4 W 28 43 15 23 1014.1 1014.1 0.0
06/11:00am 16.5 10.6 3.9 43 5.9 W 24 39 13 21 1014.1 1014.1 0.0
06/10:30am 16.1 11.1 3.5 43 5.8 W 19 35 10 19 1014.5 1014.4 0.0
06/10:00am 15.4 7.9 3.2 44 5.6 W 32 48 17 26 1014.4 1014.3 0.0
06/09:54am 15.3 8.1 3.1 44 5.5 W 30 48 16 26 1014.5 1014.4 0.0
06/09:30am 15.1 8.7 3.3 45 5.4 W 26 43 14 23 1014.4 1014.3 0.0
06/09:05am 14.6 7.7 2.8 45 5.3 W 28 52 15 28 1014.1 1014.1 0.0
06/09:00am 14.5 8.1 3.0 46 5.2 W 26 41 14 22 1014.0 1014.0 0.0
06/08:50am 14.4 7.6 2.9 46 5.2 W 28 46 15 25 1013.9 1013.9 0.0
06/08:30am 14.2 8.6 3.7 49 4.8 W 22 35 12 19 1013.9 1013.9 0.0
06/08:00am 13.7 9.5 3.8 51 4.5 WNW 15 32 8 17 1013.9 1013.9 0.0
06/07:30am 12.8 9.0 3.7 54 4.1 WNW 13 20 7 11 1013.4 1013.4 0.0
06/07:00am 12.2 9.1 3.4 55 3.9 WNW 9 17 5 9 1013.1 1013.1 0.0
06/06:30am 12.2 8.2 2.9 53 4.1 WNW 13 22 7 12 1012.7 1012.7 0.0
06/06:00am 12.1 8.5 3.1 54 4.0 WNW 11 15 6 8 1012.5 1012.5 0.0
06/05:30am 12.7 8.3 2.8 51 4.4 W 15 24 8 13 1012.0 1012.0 0.0
06/05:00am 13.2 8.7 2.4 48 4.7 W 15 28 8 15 1011.9 1011.9 0.0
06/04:30am 13.6 8.3 2.8 48 4.8 W 20 35 11 19 1011.5 1011.5 0.0
06/04:00am 14.4 8.7 2.6 45 5.3 W 22 35 12 19 1011.2 1011.2 0.0
06/03:30am 14.6 9.5 3.1 46 5.2 W 19 32 10 17 1010.8 1010.8 0.0
06/03:00am 15.0 9.8 3.5 46 5.3 W 20 30 11 16 1010.5 1010.5 0.0
06/02:30am 15.6 10.9 3.4 44 5.6 W 17 28 9 15 1010.5 1010.5 0.0
06/02:00am 15.4 10.9 4.2 47 5.2 W 17 26 9 14 1010.2 1010.2 0.0
06/01:30am 16.1 11.2 4.2 45 5.6 WNW 19 30 10 16 1010.5 1010.5 0.0
06/01:00am 15.5 11.1 4.5 48 5.2 WSW 17 24 9 13 1010.5 1010.5 0.0
06/12:30am 16.1 13.4 3.5 43 5.8 SW 7 11 4 6 1010.5 1010.5 0.0
06/12:00am 16.8 12.6 3.8 42 6.1 W 15 24 8 13 1010.0 1010.0 0.0
 
Date/Time
EST
Tmp

°C
App
Tmp
°C
Dew
Point
°C
Rel
Hum
%
Delta-T

°C
Wind Press
QNH
hPa
Press
MSL
hPa
Rain
since
9 am
mm
Dir
 
Spd
km/h
Gust
km/h
Spd
kts
Gust
kts
05/11:30pm 17.1 13.3 3.8 41 6.2 WSW 13 19 7 10 1010.2 1010.2 0.0
05/11:00pm 17.8 13.2 3.7 39 6.6 WSW 17 28 9 15 1009.9 1009.9 0.0
05/10:30pm 18.5 12.5 3.2 36 7.1 WSW 24 35 13 19 1009.5 1009.5 0.0
05/10:00pm 19.3 13.3 3.5 35 7.5 WSW 24 39 13 21 1009.2 1009.1 0.0
05/09:30pm 19.3 15.9 7.7 47 6.0 WSW 15 26 8 14 1008.6 1008.5 0.0
05/09:00pm 19.1 17.4 9.9 55 4.9 SSW 9 13 5 7 1007.7 1007.6 0.0
05/08:30pm 18.9 17.8 10.7 59 4.4 SW 7 13 4 7 1007.1 1007.0 0.0
05/08:00pm 18.3 17.8 10.7 61 4.1 ESE 4 9 2 5 1006.3 1006.2 0.0
05/07:30pm 20.8 19.7 10.6 52 5.6 NW 7 11 4 6 1005.7 1005.6 0.0
05/07:00pm 21.4 19.3 9.9 48 6.2 NNW 11 15 6 8 1005.1 1005.0 0.0
05/06:30pm 22.1 20.0 9.9 46 6.6 NW 11 15 6 8 1005.0 1004.9 0.0
05/06:00pm 23.1 21.0 9.8 43 7.3 NW 11 17 6 9 1004.7 1004.6 0.0
05/05:30pm 23.6 21.1 9.6 41 7.6 NW 13 19 7 10 1004.0 1003.9 0.0
05/05:00pm 24.4 21.5 9.6 39 8.1 NW 15 24 8 13 1003.7 1003.6 0.0
05/04:30pm 25.5 22.1 9.3 36 8.9 NNW 17 28 9 15 1003.4 1003.3 0.0
05/04:00pm 26.1 22.3 9.0 34 9.4 NNW 19 26 10 14 1003.4 1003.3 0.0
05/03:30pm 26.3 22.9 9.2 34 9.4 NNW 17 28 9 15 1003.5 1003.4 0.0
05/03:00pm 26.4 22.8 8.4 32 9.8 NNW 17 28 9 15 1003.6 1003.5 0.0
05/02:30pm 26.3 22.2 8.8 33 9.5 NNW 20 32 11 17 1003.8 1003.7 0.0
05/02:00pm 26.3 22.5 9.2 34 9.4 NNW 19 32 10 17 1004.0 1003.9 0.0
05/01:30pm 26.0 22.4 9.8 36 9.0 NW 19 28 10 15 1004.3 1004.2 0.0
05/01:00pm 25.7 22.8 12.2 43 7.8 NNW 19 26 10 14 1004.8 1004.7 0.0
05/12:30pm 25.0 23.4 12.9 47 7.0 NW 13 20 7 11 1005.7 1005.6 0.0
05/12:00pm 24.0 22.2 13.2 50 6.3 NW 15 20 8 11 1006.3 1006.2 0.0
05/11:30am 23.1 21.9 14.1 57 5.3 NW 13 22 7 12 1006.7 1006.6 0.0
05/11:00am 22.0 21.8 15.6 67 3.8 NW 11 17 6 9 1007.3 1007.2 0.0
05/10:30am 20.4 20.2 15.6 74 2.9 NW 11 15 6 8 1008.0 1007.9 0.0
05/10:00am 19.4 20.1 16.1 81 2.0 NW 7 11 4 6 1008.2 1008.1 0.0
05/09:30am 18.2 17.2 14.7 80 2.0 NNW 13 17 7 9 1008.4 1008.3 0.0
05/09:00am 17.1 16.7 15.3 89 1.1 NNW 11 15 6 8 1008.8 1008.7 0.0
05/08:30am 16.0 16.1 15.5 97 0.3 NNW 9 15 5 8 1008.7 1008.6 0.0
05/08:16am 15.8 15.9 15.5 98 0.2 NNW 9 11 5 6 1008.9 1008.8 0.0
05/08:00am 15.4 15.8 15.2 99 0.1 N 7 9 4 5 1008.9 1008.8 0.0
05/07:41am 15.3 15.6 15.1 99 0.1 NNW 7 11 4 6 1009.1 1009.0 0.0
05/07:30am 15.1 15.0 14.9 99 0.1 N 9 11 5 6 1009.1 1009.0 0.0
05/07:00am 15.1 15.6 14.9 99 0.1 NW 6 9 3 5 1009.1 1009.0 0.0
05/06:30am 15.0 15.4 14.8 99 0.1 NW 6 7 3 4 1009.1 1009.0 0.0
05/06:00am 14.9 15.1 14.7 99 0.1 NW 7 13 4 7 1009.4 1009.3 0.0
05/05:30am 15.2 15.7 15.0 99 0.1 NW 6 9 3 5 1009.5 1009.5 0.0
05/05:00am 15.2 15.7 15.0 99 0.1 WNW 6 7 3 4 1009.8 1009.8 0.0
05/04:30am 15.5 15.9 15.2 98 0.2 NW 7 9 4 5 1010.0 1010.0 0.0
05/04:00am 15.3 15.8 15.0 98 0.2 NNW 6 7 3 4 1010.0 1010.0 0.0
05/03:30am 15.5 16.4 15.2 98 0.2 N 4 6 2 3 1010.3 1010.3 0.0
05/03:00am 15.7 16.3 15.4 98 0.2 N 6 7 3 4 1010.6 1010.6 0.0
05/02:30am 15.5 16.1 15.2 98 0.2 WNW 6 9 3 5 1011.1 1011.1 0.0
05/02:05am 15.3 15.8 15.0 98 0.2 W 6 9 3 5 1011.4 1011.4 0.0
05/02:00am 15.3 15.8 15.0 98 0.2 W 6 7 3 4 1011.5 1011.5 0.0
05/01:54am 15.3 15.8 15.0 98 0.2 WNW 6 9 3 5 1011.6 1011.6 0.0
05/01:40am 15.5 15.9 15.2 98 0.2 WNW 7 11 4 6 1011.7 1011.7 0.0
05/01:30am 14.5 14.4 14.0 97 0.3 WSW 7 11 4 6 1011.8 1011.8 0.0
05/01:06am 13.5 14.4 12.9 96 0.3 CALM 0 0 0 0 1012.0 1012.0 0.0
05/01:00am 13.6 14.5 13.0 96 0.3 CALM 0 0 0 0 1012.1 1012.1 0.0
05/12:30am 13.6 14.2 13.0 96 0.3 WSW 2 6 1 3 1012.4 1012.4 0.0
05/12:00am 13.4 13.5 12.6 95 0.4 S 4 7 2 4 1012.7 1012.7 0.0
 
Date/Time
EST
Tmp

°C
App
Tmp
°C
Dew
Point
°C
Rel
Hum
%
Delta-T

°C
Wind Press
QNH
hPa
Press
MSL
hPa
Rain
since
9 am
mm
Dir
 
Spd
km/h
Gust
km/h
Spd
kts
Gust
kts
04/11:30pm 14.0 15.1 13.4 96 0.3 CALM 0 0 0 0 1013.0 1013.0 0.0
04/11:00pm 14.2 14.1 13.4 95 0.4 SW 6 6 3 3 1013.5 1013.5 0.0
04/10:30pm 14.6 15.8 13.8 95 0.4 CALM 0 0 0 0 1013.8 1013.8 0.0
04/10:00pm 14.5 15.6 13.4 93 0.6 CALM 0 0 0 0 1014.0 1014.0 0.0
04/09:30pm 15.2 15.4 14.2 94 0.6 SSE 6 9 3 5 1014.2 1014.2 0.0
04/09:00pm 16.0 15.9 15.0 94 0.6 SE 9 11 5 6 1013.9 1013.9 0.0
04/08:30pm 15.9 15.8 14.9 94 0.6 SE 9 11 5 6 1013.9 1013.9 0.0
04/08:00pm 16.3 16.3 15.2 93 0.6 SE 9 11 5 6 1013.7 1013.7 0.0

Latest Capital City Observations: Canberra | Sydney | Melbourne | Brisbane | Adelaide | Perth | Hobart | Darwin

Other Formats:

Comma delimited format used in spreadsheet applications
http://www.bom.gov.au/fwo/IDN60901/IDN60901.95761.axf

JavaScript Object Notation format (JSON) in row-major order
http://www.bom.gov.au/fwo/IDN60901/IDN60901.95761.json